Lacona, Iowa
Current Conditions -  °F | °C
As of 12:55 PM on Friday 21 Nov 2014 (Local Time) from KCNC Reporting Station
Clear Clear  
Wind Chill: 27°   Ceiling: Unl
Heat Index: 36°   Visibility: 10mi
Dew Point: 21°   Wind: 14mph
Humidity: 56%   Direction: 140°SE
Pressure: 30.19"   Gusts: NA
Location:  41.19°N, 93.38°W
Report Text: KCNC 211855Z AUTO 14012KT 10SM CLR 02/M06 A3019 RMK AO2
Loading
Personal Weather Stations






























Interactive Weather Map New forecast layout! Learn more

10-Day Weather Forecast

Advertisements
Track Severe Weather on mobile